sensor_id;sensor_type;location;lat;lon;timestamp;temperature;humidity
15815;DHT22;8008;50.024;8.172;2022-07-06T03:00:49;18.30;79.80
15815;DHT22;8008;50.024;8.172;2022-07-06T03:03:18;18.10;80.10
15815;DHT22;8008;50.024;8.172;2022-07-06T03:05:46;18.00;81.10
15815;DHT22;8008;50.024;8.172;2022-07-06T03:08:17;18.00;81.50
15815;DHT22;8008;50.024;8.172;2022-07-06T03:10:46;18.20;81.30
15815;DHT22;8008;50.024;8.172;2022-07-06T03:13:13;18.00;81.60
15815;DHT22;8008;50.024;8.172;2022-07-06T03:15:42;17.80;83.00
15815;DHT22;8008;50.024;8.172;2022-07-06T03:18:11;17.50;84.10
15815;DHT22;8008;50.024;8.172;2022-07-06T03:20:39;17.40;85.70
15815;DHT22;8008;50.024;8.172;2022-07-06T03:23:10;17.40;86.80
15815;DHT22;8008;50.024;8.172;2022-07-06T03:25:38;17.50;86.70
15815;DHT22;8008;50.024;8.172;2022-07-06T03:28:06;17.50;86.70
15815;DHT22;8008;50.024;8.172;2022-07-06T03:30:34;17.50;86.90
15815;DHT22;8008;50.024;8.172;2022-07-06T03:33:03;17.50;87.20
15815;DHT22;8008;50.024;8.172;2022-07-06T03:35:32;17.50;87.20
15815;DHT22;8008;50.024;8.172;2022-07-06T03:38:02;17.50;88.00
15815;DHT22;8008;50.024;8.172;2022-07-06T03:40:31;17.60;87.80
15815;DHT22;8008;50.024;8.172;2022-07-06T03:43:00;17.80;87.10
15815;DHT22;8008;50.024;8.172;2022-07-06T03:45:32;17.80;87.10
15815;DHT22;8008;50.024;8.172;2022-07-06T03:48:01;17.70;87.50
15815;DHT22;8008;50.024;8.172;2022-07-06T03:50:32;17.80;87.30
15815;DHT22;8008;50.024;8.172;2022-07-06T03:53:00;17.60;87.70
15815;DHT22;8008;50.024;8.172;2022-07-06T03:55:28;17.50;88.80
15815;DHT22;8008;50.024;8.172;2022-07-06T03:58:01;17.40;89.40
15815;DHT22;8008;50.024;8.172;2022-07-06T04:00:34;17.40;90.10
15815;DHT22;8008;50.024;8.172;2022-07-06T04:03:06;17.50;89.90
15815;DHT22;8008;50.024;8.172;2022-07-06T04:05:42;17.40;90.10
15815;DHT22;8008;50.024;8.172;2022-07-06T04:08:10;17.40;90.40
15815;DHT22;8008;50.024;8.172;2022-07-06T04:10:43;17.20;90.50
15815;DHT22;8008;50.024;8.172;2022-07-06T04:13:11;17.20;90.90
15815;DHT22;8008;50.024;8.172;2022-07-06T04:15:40;17.30;90.70
15815;DHT22;8008;50.024;8.172;2022-07-06T04:18:08;17.50;90.30
15815;DHT22;8008;50.024;8.172;2022-07-06T04:20:44;17.30;90.20
15815;DHT22;8008;50.024;8.172;2022-07-06T04:23:13;17.20;90.40
15815;DHT22;8008;50.024;8.172;2022-07-06T04:25:41;17.00;90.70
15815;DHT22;8008;50.024;8.172;2022-07-06T04:28:09;17.00;90.90
15815;DHT22;8008;50.024;8.172;2022-07-06T04:30:37;17.10;90.50
15815;DHT22;8008;50.024;8.172;2022-07-06T04:33:10;17.00;90.90
15815;DHT22;8008;50.024;8.172;2022-07-06T04:35:39;17.10;90.80
15815;DHT22;8008;50.024;8.172;2022-07-06T04:38:09;17.30;90.20
15815;DHT22;8008;50.024;8.172;2022-07-06T04:40:37;17.50;89.40
15815;DHT22;8008;50.024;8.172;2022-07-06T04:43:09;17.50;88.90
15815;DHT22;8008;50.024;8.172;2022-07-06T04:45:38;17.30;89.50
15815;DHT22;8008;50.024;8.172;2022-07-06T04:48:06;17.30;89.80
15815;DHT22;8008;50.024;8.172;2022-07-06T04:50:35;17.30;88.60
15815;DHT22;8008;50.024;8.172;2022-07-06T04:53:11;17.10;88.70
15815;DHT22;8008;50.024;8.172;2022-07-06T04:55:39;17.30;89.50
15815;DHT22;8008;50.024;8.172;2022-07-06T04:58:07;17.40;88.60
15815;DHT22;8008;50.024;8.172;2022-07-06T05:00:35;17.30;88.10
15815;DHT22;8008;50.024;8.172;2022-07-06T05:03:04;17.10;88.60
15815;DHT22;8008;50.024;8.172;2022-07-06T05:05:32;17.10;89.50
15815;DHT22;8008;50.024;8.172;2022-07-06T05:08:00;17.30;88.40
15815;DHT22;8008;50.024;8.172;2022-07-06T05:10:30;17.40;87.30
15815;DHT22;8008;50.024;8.172;2022-07-06T05:12:59;17.60;86.30
15815;DHT22;8008;50.024;8.172;2022-07-06T05:15:27;17.60;86.80
15815;DHT22;8008;50.024;8.172;2022-07-06T05:17:56;17.70;85.60
15815;DHT22;8008;50.024;8.172;2022-07-06T05:20:25;17.70;84.20
15815;DHT22;8008;50.024;8.172;2022-07-06T05:22:53;17.90;83.30
15815;DHT22;8008;50.024;8.172;2022-07-06T05:25:26;18.00;82.00
15815;DHT22;8008;50.024;8.172;2022-07-06T05:27:56;18.10;82.10
15815;DHT22;8008;50.024;8.172;2022-07-06T05:30:24;18.20;82.10
15815;DHT22;8008;50.024;8.172;2022-07-06T05:32:53;18.20;81.90
15815;DHT22;8008;50.024;8.172;2022-07-06T05:35:21;18.20;80.80
15815;DHT22;8008;50.024;8.172;2022-07-06T05:38:09;18.20;80.20
15815;DHT22;8008;50.024;8.172;2022-07-06T05:40:37;18.30;80.10
15815;DHT22;8008;50.024;8.172;2022-07-06T05:43:07;18.40;78.90
15815;DHT22;8008;50.024;8.172;2022-07-06T05:45:35;18.30;78.50
15815;DHT22;8008;50.024;8.172;2022-07-06T05:48:03;18.40;78.60
15815;DHT22;8008;50.024;8.172;2022-07-06T05:50:50;18.40;78.70
15815;DHT22;8008;50.024;8.172;2022-07-06T05:53:17;18.50;77.70
15815;DHT22;8008;50.024;8.172;2022-07-06T05:55:50;18.50;77.60
15815;DHT22;8008;50.024;8.172;2022-07-06T05:58:20;18.50;77.00
15815;DHT22;8008;50.024;8.172;2022-07-06T06:00:49;18.40;77.10
15815;DHT22;8008;50.024;8.172;2022-07-06T06:03:19;18.50;77.30
15815;DHT22;8008;50.024;8.172;2022-07-06T06:05:48;18.60;77.10
15815;DHT22;8008;50.024;8.172;2022-07-06T06:08:18;18.60;75.70
15815;DHT22;8008;50.024;8.172;2022-07-06T06:10:49;18.60;76.20
15815;DHT22;8008;50.024;8.172;2022-07-06T06:13:21;18.50;75.20
15815;DHT22;8008;50.024;8.172;2022-07-06T06:15:49;18.60;75.60
15815;DHT22;8008;50.024;8.172;2022-07-06T06:18:18;18.50;74.50
15815;DHT22;8008;50.024;8.172;2022-07-06T06:20:46;18.40;75.10
15815;DHT22;8008;50.024;8.172;2022-07-06T06:23:14;18.50;75.60
15815;DHT22;8008;50.024;8.172;2022-07-06T06:25:42;18.60;74.10
15815;DHT22;8008;50.024;8.172;2022-07-06T06:28:11;18.60;74.90
15815;DHT22;8008;50.024;8.172;2022-07-06T06:30:40;18.50;74.80
15815;DHT22;8008;50.024;8.172;2022-07-06T06:33:09;18.60;74.80
15815;DHT22;8008;50.024;8.172;2022-07-06T06:35:41;18.60;75.30
15815;DHT22;8008;50.024;8.172;2022-07-06T06:38:09;18.60;74.80
15815;DHT22;8008;50.024;8.172;2022-07-06T06:40:37;18.70;75.00
15815;DHT22;8008;50.024;8.172;2022-07-06T06:43:05;18.80;74.50
15815;DHT22;8008;50.024;8.172;2022-07-06T06:45:37;18.80;75.00
15815;DHT22;8008;50.024;8.172;2022-07-06T06:48:07;18.80;74.80
15815;DHT22;8008;50.024;8.172;2022-07-06T06:50:42;18.70;74.40
15815;DHT22;8008;50.024;8.172;2022-07-06T06:53:10;18.70;74.70
15815;DHT22;8008;50.024;8.172;2022-07-06T06:55:39;18.70;75.00
15815;DHT22;8008;50.024;8.172;2022-07-06T06:58:07;18.60;74.30
15815;DHT22;8008;50.024;8.172;2022-07-06T07:00:35;18.60;74.30
15815;DHT22;8008;50.024;8.172;2022-07-06T07:03:03;18.60;75.00
15815;DHT22;8008;50.024;8.172;2022-07-06T07:05:32;18.90;75.40
15815;DHT22;8008;50.024;8.172;2022-07-06T07:08:00;18.90;74.60
15815;DHT22;8008;50.024;8.172;2022-07-06T07:10:31;18.90;74.80
15815;DHT22;8008;50.024;8.172;2022-07-06T07:13:00;18.90;74.80
15815;DHT22;8008;50.024;8.172;2022-07-06T07:15:28;19.00;75.10
15815;DHT22;8008;50.024;8.172;2022-07-06T07:17:56;19.10;75.50
15815;DHT22;8008;50.024;8.172;2022-07-06T07:20:24;19.20;74.70
15815;DHT22;8008;50.024;8.172;2022-07-06T07:22:54;19.20;74.30
15815;DHT22;8008;50.024;8.172;2022-07-06T07:25:22;19.30;74.30
15815;DHT22;8008;50.024;8.172;2022-07-06T07:27:50;19.30;72.70
15815;DHT22;8008;50.024;8.172;2022-07-06T07:30:18;19.40;72.40
15815;DHT22;8008;50.024;8.172;2022-07-06T07:32:46;19.40;73.40
15815;DHT22;8008;50.024;8.172;2022-07-06T07:35:14;19.40;72.60
15815;DHT22;8008;50.024;8.172;2022-07-06T07:37:41;19.40;71.40
15815;DHT22;8008;50.024;8.172;2022-07-06T07:40:11;19.30;70.20
15815;DHT22;8008;50.024;8.172;2022-07-06T07:42:39;19.30;70.80
15815;DHT22;8008;50.024;8.172;2022-07-06T07:45:08;19.40;70.10
15815;DHT22;8008;50.024;8.172;2022-07-06T07:47:36;19.30;69.80
15815;DHT22;8008;50.024;8.172;2022-07-06T07:50:05;19.40;70.30
15815;DHT22;8008;50.024;8.172;2022-07-06T07:52:33;19.50;70.70
15815;DHT22;8008;50.024;8.172;2022-07-06T07:55:02;19.60;71.60
15815;DHT22;8008;50.024;8.172;2022-07-06T07:57:52;19.60;72.00
15815;DHT22;8008;50.024;8.172;2022-07-06T08:00:20;19.70;70.30
15815;DHT22;8008;50.024;8.172;2022-07-06T08:02:53;19.70;70.20
15815;DHT22;8008;50.024;8.172;2022-07-06T08:05:22;19.70;69.70
15815;DHT22;8008;50.024;8.172;2022-07-06T08:07:49;19.90;70.10
15815;DHT22;8008;50.024;8.172;2022-07-06T08:10:18;19.80;68.20
15815;DHT22;8008;50.024;8.172;2022-07-06T08:12:46;19.90;69.00
15815;DHT22;8008;50.024;8.172;2022-07-06T08:15:15;19.80;67.80
15815;DHT22;8008;50.024;8.172;2022-07-06T08:17:43;19.90;68.70
15815;DHT22;8008;50.024;8.172;2022-07-06T08:20:11;19.70;68.20
15815;DHT22;8008;50.024;8.172;2022-07-06T08:22:41;19.80;67.70
15815;DHT22;8008;50.024;8.172;2022-07-06T08:25:09;19.90;68.20
15815;DHT22;8008;50.024;8.172;2022-07-06T08:27:37;19.90;68.70
15815;DHT22;8008;50.024;8.172;2022-07-06T08:30:06;19.90;68.50
15815;DHT22;8008;50.024;8.172;2022-07-06T08:32:38;19.90;67.30
15815;DHT22;8008;50.024;8.172;2022-07-06T08:35:26;19.90;68.30
15815;DHT22;8008;50.024;8.172;2022-07-06T08:37:54;19.90;66.80
15815;DHT22;8008;50.024;8.172;2022-07-06T08:40:22;19.90;66.40
15815;DHT22;8008;50.024;8.172;2022-07-06T08:42:53;19.90;66.60
15815;DHT22;8008;50.024;8.172;2022-07-06T08:45:22;20.00;66.80
15815;DHT22;8008;50.024;8.172;2022-07-06T08:47:54;20.10;67.10
15815;DHT22;8008;50.024;8.172;2022-07-06T08:50:23;20.20;65.50
15815;DHT22;8008;50.024;8.172;2022-07-06T08:52:52;20.30;65.60
15815;DHT22;8008;50.024;8.172;2022-07-06T08:55:21;20.30;64.70
15815;DHT22;8008;50.024;8.172;2022-07-06T08:57:49;20.30;64.30
15815;DHT22;8008;50.024;8.172;2022-07-06T09:00:17;20.40;65.20
15815;DHT22;8008;50.024;8.172;2022-07-06T09:02:45;20.40;64.70
15815;DHT22;8008;50.024;8.172;2022-07-06T09:05:15;20.40;64.80
15815;DHT22;8008;50.024;8.172;2022-07-06T09:07:45;20.40;64.70
15815;DHT22;8008;50.024;8.172;2022-07-06T09:10:26;20.40;64.60
15815;DHT22;8008;50.024;8.172;2022-07-06T09:13:02;20.60;65.50
15815;DHT22;8008;50.024;8.172;2022-07-06T09:15:31;20.50;64.60
15815;DHT22;8008;50.024;8.172;2022-07-06T09:17:59;20.60;66.60
15815;DHT22;8008;50.024;8.172;2022-07-06T09:20:29;20.90;66.40
15815;DHT22;8008;50.024;8.172;2022-07-06T09:22:58;20.90;65.60
15815;DHT22;8008;50.024;8.172;2022-07-06T09:25:27;21.00;65.70
15815;DHT22;8008;50.024;8.172;2022-07-06T09:27:57;20.90;65.70
15815;DHT22;8008;50.024;8.172;2022-07-06T09:30:26;20.80;65.80
15815;DHT22;8008;50.024;8.172;2022-07-06T09:32:55;20.80;65.10
15815;DHT22;8008;50.024;8.172;2022-07-06T09:35:25;21.00;66.20
15815;DHT22;8008;50.024;8.172;2022-07-06T09:38:02;21.00;66.10
15815;DHT22;8008;50.024;8.172;2022-07-06T09:40:33;20.90;65.50
15815;DHT22;8008;50.024;8.172;2022-07-06T09:43:14;20.80;64.60
15815;DHT22;8008;50.024;8.172;2022-07-06T09:45:43;20.90;64.40
15815;DHT22;8008;50.024;8.172;2022-07-06T09:48:13;20.90;64.90
15815;DHT22;8008;50.024;8.172;2022-07-06T09:50:46;21.00;63.60
15815;DHT22;8008;50.024;8.172;2022-07-06T09:53:15;21.10;62.10
15815;DHT22;8008;50.024;8.172;2022-07-06T09:55:46;21.20;61.50
15815;DHT22;8008;50.024;8.172;2022-07-06T09:58:14;21.20;62.40
15815;DHT22;8008;50.024;8.172;2022-07-06T10:00:42;21.20;61.50
15815;DHT22;8008;50.024;8.172;2022-07-06T10:03:12;21.10;62.00
15815;DHT22;8008;50.024;8.172;2022-07-06T10:05:41;21.00;62.30
15815;DHT22;8008;50.024;8.172;2022-07-06T10:08:10;21.10;62.20
15815;DHT22;8008;50.024;8.172;2022-07-06T10:10:41;21.40;62.40
15815;DHT22;8008;50.024;8.172;2022-07-06T10:13:10;21.60;62.30
15815;DHT22;8008;50.024;8.172;2022-07-06T10:15:39;22.00;60.40
15815;DHT22;8008;50.024;8.172;2022-07-06T10:18:09;22.30;61.00
15815;DHT22;8008;50.024;8.172;2022-07-06T10:20:38;22.20;61.00
15815;DHT22;8008;50.024;8.172;2022-07-06T10:23:08;22.40;62.30
15815;DHT22;8008;50.024;8.172;2022-07-06T10:25:37;22.60;62.70
15815;DHT22;8008;50.024;8.172;2022-07-06T10:28:07;22.70;62.20
15815;DHT22;8008;50.024;8.172;2022-07-06T10:30:42;22.90;62.00
15815;DHT22;8008;50.024;8.172;2022-07-06T10:33:11;22.90;61.20
15815;DHT22;8008;50.024;8.172;2022-07-06T10:35:41;23.20;60.20
15815;DHT22;8008;50.024;8.172;2022-07-06T10:38:10;23.40;59.40
15815;DHT22;8008;50.024;8.172;2022-07-06T10:40:39;23.40;59.30
15815;DHT22;8008;50.024;8.172;2022-07-06T10:43:33;23.30;58.80
15815;DHT22;8008;50.024;8.172;2022-07-06T10:46:06;23.50;58.10
15815;DHT22;8008;50.024;8.172;2022-07-06T10:48:35;23.20;58.10
15815;DHT22;8008;50.024;8.172;2022-07-06T10:51:03;23.90;58.20
15815;DHT22;8008;50.024;8.172;2022-07-06T10:53:33;24.30;57.50
15815;DHT22;8008;50.024;8.172;2022-07-06T10:56:03;24.50;57.50
15815;DHT22;8008;50.024;8.172;2022-07-06T10:58:37;24.80;56.50
15815;DHT22;8008;50.024;8.172;2022-07-06T11:01:08;25.30;55.80
15815;DHT22;8008;50.024;8.172;2022-07-06T11:03:41;25.50;55.40
15815;DHT22;8008;50.024;8.172;2022-07-06T11:06:12;25.50;55.40
15815;DHT22;8008;50.024;8.172;2022-07-06T11:08:42;25.80;56.20
15815;DHT22;8008;50.024;8.172;2022-07-06T11:11:11;26.10;56.00
15815;DHT22;8008;50.024;8.172;2022-07-06T11:13:47;26.40;56.40
15815;DHT22;8008;50.024;8.172;2022-07-06T11:16:16;26.20;55.50
15815;DHT22;8008;50.024;8.172;2022-07-06T11:18:48;25.80;56.10
15815;DHT22;8008;50.024;8.172;2022-07-06T11:21:22;25.70;56.50
15815;DHT22;8008;50.024;8.172;2022-07-06T11:23:50;26.10;55.60
15815;DHT22;8008;50.024;8.172;2022-07-06T11:26:19;26.10;55.60
15815;DHT22;8008;50.024;8.172;2022-07-06T11:28:51;25.80;55.40
15815;DHT22;8008;50.024;8.172;2022-07-06T11:31:19;25.60;55.50
15815;DHT22;8008;50.024;8.172;2022-07-06T11:33:47;25.50;55.00
15815;DHT22;8008;50.024;8.172;2022-07-06T11:36:17;25.80;55.20
15815;DHT22;8008;50.024;8.172;2022-07-06T11:38:46;26.60;55.40
15815;DHT22;8008;50.024;8.172;2022-07-06T11:41:15;26.60;55.10
15815;DHT22;8008;50.024;8.172;2022-07-06T11:43:46;26.30;55.70
15815;DHT22;8008;50.024;8.172;2022-07-06T11:46:29;26.20;56.30
15815;DHT22;8008;50.024;8.172;2022-07-06T11:48:58;26.60;56.30
15815;DHT22;8008;50.024;8.172;2022-07-06T11:51:28;26.60;55.50
15815;DHT22;8008;50.024;8.172;2022-07-06T11:53:58;26.40;55.80
15815;DHT22;8008;50.024;8.172;2022-07-06T11:56:27;26.70;55.60
15815;DHT22;8008;50.024;8.172;2022-07-06T11:58:57;26.90;55.60
15815;DHT22;8008;50.024;8.172;2022-07-06T12:01:27;27.00;54.50
15815;DHT22;8008;50.024;8.172;2022-07-06T12:03:59;26.50;53.70
15815;DHT22;8008;50.024;8.172;2022-07-06T12:06:28;26.00;53.90
15815;DHT22;8008;50.024;8.172;2022-07-06T12:08:57;26.40;53.60
15815;DHT22;8008;50.024;8.172;2022-07-06T12:11:27;27.10;53.50
15815;DHT22;8008;50.024;8.172;2022-07-06T12:13:56;27.60;53.60
15815;DHT22;8008;50.024;8.172;2022-07-06T12:16:31;27.20;54.50
15815;DHT22;8008;50.024;8.172;2022-07-06T12:19:02;27.10;53.80
15815;DHT22;8008;50.024;8.172;2022-07-06T12:21:33;26.70;53.90
15815;DHT22;8008;50.024;8.172;2022-07-06T12:24:05;26.70;54.30
15815;DHT22;8008;50.024;8.172;2022-07-06T12:26:39;27.20;53.80
15815;DHT22;8008;50.024;8.172;2022-07-06T12:29:09;28.20;53.50
15815;DHT22;8008;50.024;8.172;2022-07-06T12:31:43;28.70;52.70
15815;DHT22;8008;50.024;8.172;2022-07-06T12:34:15;28.60;52.40
15815;DHT22;8008;50.024;8.172;2022-07-06T12:36:45;28.40;52.50
15815;DHT22;8008;50.024;8.172;2022-07-06T12:39:14;28.60;52.90
15815;DHT22;8008;50.024;8.172;2022-07-06T12:41:47;28.30;52.90
15815;DHT22;8008;50.024;8.172;2022-07-06T12:44:17;27.80;52.60
15815;DHT22;8008;50.024;8.172;2022-07-06T12:46:47;27.80;53.40
15815;DHT22;8008;50.024;8.172;2022-07-06T12:49:17;28.40;52.50
15815;DHT22;8008;50.024;8.172;2022-07-06T12:52:08;29.40;52.00
15815;DHT22;8008;50.024;8.172;2022-07-06T12:54:44;30.30;51.00
15815;DHT22;8008;50.024;8.172;2022-07-06T12:57:14;30.70;49.70
15815;DHT22;8008;50.024;8.172;2022-07-06T12:59:44;31.20;50.00
15815;DHT22;8008;50.024;8.172;2022-07-06T13:02:21;31.80;49.60
15815;DHT22;8008;50.024;8.172;2022-07-06T13:05:11;31.50;49.60
15815;DHT22;8008;50.024;8.172;2022-07-06T13:07:47;31.90;48.50
15815;DHT22;8008;50.024;8.172;2022-07-06T13:10:16;31.30;48.30
15815;DHT22;8008;50.024;8.172;2022-07-06T13:12:44;30.60;48.60
15815;DHT22;8008;50.024;8.172;2022-07-06T13:15:12;30.20;48.10
15815;DHT22;8008;50.024;8.172;2022-07-06T13:17:42;29.40;48.30
15815;DHT22;8008;50.024;8.172;2022-07-06T13:20:11;28.60;49.60
15815;DHT22;8008;50.024;8.172;2022-07-06T13:22:40;28.60;50.20
15815;DHT22;8008;50.024;8.172;2022-07-06T13:25:08;28.10;50.50
15815;DHT22;8008;50.024;8.172;2022-07-06T13:27:36;27.90;50.90
15815;DHT22;8008;50.024;8.172;2022-07-06T13:30:05;27.60;51.10
15815;DHT22;8008;50.024;8.172;2022-07-06T13:32:33;27.10;52.00
15815;DHT22;8008;50.024;8.172;2022-07-06T13:35:02;26.80;52.10
15815;DHT22;8008;50.024;8.172;2022-07-06T13:37:30;26.60;52.50
15815;DHT22;8008;50.024;8.172;2022-07-06T13:39:59;26.80;52.50
15815;DHT22;8008;50.024;8.172;2022-07-06T13:42:27;27.50;53.30
15815;DHT22;8008;50.024;8.172;2022-07-06T13:44:55;28.30;52.40
15815;DHT22;8008;50.024;8.172;2022-07-06T13:47:23;29.10;51.60
15815;DHT22;8008;50.024;8.172;2022-07-06T13:49:51;30.00;50.50
15815;DHT22;8008;50.024;8.172;2022-07-06T13:52:20;30.90;49.80
15815;DHT22;8008;50.024;8.172;2022-07-06T13:54:48;31.40;48.70
15815;DHT22;8008;50.024;8.172;2022-07-06T13:57:16;32.30;49.10
15815;DHT22;8008;50.024;8.172;2022-07-06T13:59:44;32.40;48.00
15815;DHT22;8008;50.024;8.172;2022-07-06T14:02:13;31.90;47.40
15815;DHT22;8008;50.024;8.172;2022-07-06T14:04:41;31.50;48.40
15815;DHT22;8008;50.024;8.172;2022-07-06T14:07:09;32.20;47.90
15815;DHT22;8008;50.024;8.172;2022-07-06T14:09:41;32.70;47.30
15815;DHT22;8008;50.024;8.172;2022-07-06T14:12:09;33.50;47.20
15815;DHT22;8008;50.024;8.172;2022-07-06T14:14:37;33.90;46.00
15815;DHT22;8008;50.024;8.172;2022-07-06T14:17:05;33.20;45.90
15815;DHT22;8008;50.024;8.172;2022-07-06T14:19:33;32.20;46.70
15815;DHT22;8008;50.024;8.172;2022-07-06T14:22:01;31.50;47.00
15815;DHT22;8008;50.024;8.172;2022-07-06T14:24:29;30.90;47.80
15815;DHT22;8008;50.024;8.172;2022-07-06T14:26:59;30.00;47.80
15815;DHT22;8008;50.024;8.172;2022-07-06T14:29:27;29.10;48.30
15815;DHT22;8008;50.024;8.172;2022-07-06T14:31:55;28.20;49.50
15815;DHT22;8008;50.024;8.172;2022-07-06T14:34:23;28.30;49.60
15815;DHT22;8008;50.024;8.172;2022-07-06T14:36:51;28.70;49.70
15815;DHT22;8008;50.024;8.172;2022-07-06T14:39:19;29.00;49.30
15815;DHT22;8008;50.024;8.172;2022-07-06T14:41:47;28.70;49.60
15815;DHT22;8008;50.024;8.172;2022-07-06T14:44:16;28.10;49.70
15815;DHT22;8008;50.024;8.172;2022-07-06T14:46:45;28.00;51.00
15815;DHT22;8008;50.024;8.172;2022-07-06T14:49:13;27.60;50.70
15815;DHT22;8008;50.024;8.172;2022-07-06T14:51:47;26.70;51.30
15815;DHT22;8008;50.024;8.172;2022-07-06T14:54:15;26.70;51.50
15815;DHT22;8008;50.024;8.172;2022-07-06T14:56:43;26.50;51.10
15815;DHT22;8008;50.024;8.172;2022-07-06T14:59:11;26.10;51.20
15815;DHT22;8008;50.024;8.172;2022-07-06T15:01:52;26.00;51.40
15815;DHT22;8008;50.024;8.172;2022-07-06T15:04:21;25.60;51.80
15815;DHT22;8008;50.024;8.172;2022-07-06T15:06:49;25.40;52.10
15815;DHT22;8008;50.024;8.172;2022-07-06T15:09:22;25.20;52.50
15815;DHT22;8008;50.024;8.172;2022-07-06T15:11:50;25.00;52.80
15815;DHT22;8008;50.024;8.172;2022-07-06T15:14:18;24.70;53.20
15815;DHT22;8008;50.024;8.172;2022-07-06T15:16:46;24.60;53.40
15815;DHT22;8008;50.024;8.172;2022-07-06T15:19:16;24.50;53.60
15815;DHT22;8008;50.024;8.172;2022-07-06T15:21:45;24.60;53.50
15815;DHT22;8008;50.024;8.172;2022-07-06T15:24:13;24.90;53.60
15815;DHT22;8008;50.024;8.172;2022-07-06T15:26:41;24.90;53.50
15815;DHT22;8008;50.024;8.172;2022-07-06T15:29:09;25.10;53.40
15815;DHT22;8008;50.024;8.172;2022-07-06T15:31:37;25.00;53.50
15815;DHT22;8008;50.024;8.172;2022-07-06T15:34:05;24.90;53.80
15815;DHT22;8008;50.024;8.172;2022-07-06T15:36:35;25.10;53.50
15815;DHT22;8008;50.024;8.172;2022-07-06T15:39:03;25.60;53.80
15815;DHT22;8008;50.024;8.172;2022-07-06T15:41:31;26.40;53.60
15815;DHT22;8008;50.024;8.172;2022-07-06T15:43:59;27.00;52.40
15815;DHT22;8008;50.024;8.172;2022-07-06T15:46:27;27.00;52.50
15815;DHT22;8008;50.024;8.172;2022-07-06T15:48:55;27.00;52.20
15815;DHT22;8008;50.024;8.172;2022-07-06T15:51:23;27.10;52.50
15815;DHT22;8008;50.024;8.172;2022-07-06T15:53:53;26.90;52.40
15815;DHT22;8008;50.024;8.172;2022-07-06T15:56:20;26.60;52.70
15815;DHT22;8008;50.024;8.172;2022-07-06T15:58:48;26.30;52.80
15815;DHT22;8008;50.024;8.172;2022-07-06T16:01:17;25.80;52.50
15815;DHT22;8008;50.024;8.172;2022-07-06T16:03:45;25.30;53.30
15815;DHT22;8008;50.024;8.172;2022-07-06T16:06:13;25.50;53.60
15815;DHT22;8008;50.024;8.172;2022-07-06T16:08:41;24.80;53.80
15815;DHT22;8008;50.024;8.172;2022-07-06T16:11:14;24.90;54.50
15815;DHT22;8008;50.024;8.172;2022-07-06T16:13:42;25.30;54.00
15815;DHT22;8008;50.024;8.172;2022-07-06T16:16:11;25.40;53.80
15815;DHT22;8008;50.024;8.172;2022-07-06T16:18:39;25.40;53.60
15815;DHT22;8008;50.024;8.172;2022-07-06T16:21:07;25.40;54.40
15815;DHT22;8008;50.024;8.172;2022-07-06T16:23:35;25.30;54.10
15815;DHT22;8008;50.024;8.172;2022-07-06T16:26:05;25.40;53.90
15815;DHT22;8008;50.024;8.172;2022-07-06T16:28:34;25.30;54.20
15815;DHT22;8008;50.024;8.172;2022-07-06T16:31:03;24.80;54.10
15815;DHT22;8008;50.024;8.172;2022-07-06T16:33:31;24.50;55.00
15815;DHT22;8008;50.024;8.172;2022-07-06T16:36:02;24.70;55.10
15815;DHT22;8008;50.024;8.172;2022-07-06T16:38:31;24.80;55.10
15815;DHT22;8008;50.024;8.172;2022-07-06T16:40:59;24.80;54.90
15815;DHT22;8008;50.024;8.172;2022-07-06T16:43:27;24.90;54.70
15815;DHT22;8008;50.024;8.172;2022-07-06T16:45:58;24.70;54.70
15815;DHT22;8008;50.024;8.172;2022-07-06T16:48:27;24.50;54.90
15815;DHT22;8008;50.024;8.172;2022-07-06T16:50:55;24.60;54.70
15815;DHT22;8008;50.024;8.172;2022-07-06T16:53:24;24.70;55.50
15815;DHT22;8008;50.024;8.172;2022-07-06T16:55:53;24.70;54.60
15815;DHT22;8008;50.024;8.172;2022-07-06T16:58:21;24.70;54.60
15815;DHT22;8008;50.024;8.172;2022-07-06T17:00:49;24.90;55.20
15815;DHT22;8008;50.024;8.172;2022-07-06T17:03:18;24.80;54.60
15815;DHT22;8008;50.024;8.172;2022-07-06T17:05:46;24.70;54.60
15815;DHT22;8008;50.024;8.172;2022-07-06T17:08:14;24.70;54.80
15815;DHT22;8008;50.024;8.172;2022-07-06T17:10:42;24.70;54.60
15815;DHT22;8008;50.024;8.172;2022-07-06T17:13:10;24.50;54.60
15815;DHT22;8008;50.024;8.172;2022-07-06T17:15:38;24.30;54.30
15815;DHT22;8008;50.024;8.172;2022-07-06T17:18:05;24.00;54.00
15815;DHT22;8008;50.024;8.172;2022-07-06T17:20:35;23.90;54.30
15815;DHT22;8008;50.024;8.172;2022-07-06T17:23:03;24.00;54.70
15815;DHT22;8008;50.024;8.172;2022-07-06T17:25:31;24.20;54.60
15815;DHT22;8008;50.024;8.172;2022-07-06T17:28:00;24.70;54.50
15815;DHT22;8008;50.024;8.172;2022-07-06T17:30:28;25.50;54.00
15815;DHT22;8008;50.024;8.172;2022-07-06T17:32:57;26.40;53.40
15815;DHT22;8008;50.024;8.172;2022-07-06T17:35:25;27.40;53.00
15815;DHT22;8008;50.024;8.172;2022-07-06T17:37:54;28.40;52.50
15815;DHT22;8008;50.024;8.172;2022-07-06T17:40:23;29.10;51.10
15815;DHT22;8008;50.024;8.172;2022-07-06T17:42:51;29.30;51.70
15815;DHT22;8008;50.024;8.172;2022-07-06T17:45:19;29.30;50.70
15815;DHT22;8008;50.024;8.172;2022-07-06T17:47:47;28.70;50.50
15815;DHT22;8008;50.024;8.172;2022-07-06T17:50:15;27.70;51.40
15815;DHT22;8008;50.024;8.172;2022-07-06T17:52:44;26.90;51.60
15815;DHT22;8008;50.024;8.172;2022-07-06T17:55:13;26.20;52.30
15815;DHT22;8008;50.024;8.172;2022-07-06T17:57:41;25.60;52.40
15815;DHT22;8008;50.024;8.172;2022-07-06T18:00:10;25.20;52.80
15815;DHT22;8008;50.024;8.172;2022-07-06T18:02:39;24.80;53.20
15815;DHT22;8008;50.024;8.172;2022-07-06T18:05:07;24.50;54.10
15815;DHT22;8008;50.024;8.172;2022-07-06T18:07:36;24.30;54.60
15815;DHT22;8008;50.024;8.172;2022-07-06T18:10:05;24.20;54.50
15815;DHT22;8008;50.024;8.172;2022-07-06T18:12:34;24.20;54.60
15815;DHT22;8008;50.024;8.172;2022-07-06T18:15:03;24.00;54.30
15815;DHT22;8008;50.024;8.172;2022-07-06T18:17:31;23.90;54.70
15815;DHT22;8008;50.024;8.172;2022-07-06T18:19:59;23.70;54.80
15815;DHT22;8008;50.024;8.172;2022-07-06T18:22:27;23.50;54.90
15815;DHT22;8008;50.024;8.172;2022-07-06T18:24:55;23.40;55.20
15815;DHT22;8008;50.024;8.172;2022-07-06T18:27:23;23.20;55.10
15815;DHT22;8008;50.024;8.172;2022-07-06T18:29:52;23.10;55.60
15815;DHT22;8008;50.024;8.172;2022-07-06T18:32:21;23.00;55.90
15815;DHT22;8008;50.024;8.172;2022-07-06T18:34:50;23.00;56.10
15815;DHT22;8008;50.024;8.172;2022-07-06T18:37:18;23.00;56.30
15815;DHT22;8008;50.024;8.172;2022-07-06T18:39:46;22.90;56.10
15815;DHT22;8008;50.024;8.172;2022-07-06T18:42:14;22.90;56.10
15815;DHT22;8008;50.024;8.172;2022-07-06T18:44:42;22.90;56.30
15815;DHT22;8008;50.024;8.172;2022-07-06T18:47:11;22.80;56.40
15815;DHT22;8008;50.024;8.172;2022-07-06T18:49:40;22.80;56.40
15815;DHT22;8008;50.024;8.172;2022-07-06T18:52:08;22.90;56.60
15815;DHT22;8008;50.024;8.172;2022-07-06T18:54:36;22.80;56.60
15815;DHT22;8008;50.024;8.172;2022-07-06T18:57:05;22.80;56.70
15815;DHT22;8008;50.024;8.172;2022-07-06T18:59:33;22.80;57.00